Terminal Aerodrome Forecast
Issued by NWS Cleveland, OH

Home | Current Version | Previous Version | Graphics & Text | Print | Product List | Glossary On
Versions: 1 2 3 4 5 6 7 8 9 10 11 12 13 14 15
000
FTUS41 KCLE 041400 AAA
TAFYNG
TAF AMD
KYNG 041458Z 0415/0512 21012G20KT P6SM SCT100 BKN250
     FM042300 22012G20KT P6SM VCTS OVC050CB
      TEMPO 0501/0503 1 1/2SM -TSRA BR BKN025CB OVC035
     FM050400 23008KT P6SM VCSH SCT025 OVC035=

USA.gov is the U.S. government's official web portal to all federal, state and local government web resources and services.